« 第7師団創隊64周年・東千歳駐屯地創立65周年記念行事【観閲行進編】 2019/5/26 sun | トップページ | 尾道展示飛行展開 広島空港 2019/7/26 fri »

2019/07/28

尾道港開港850年記念ブルーインパルスの展示飛行【前日】 尾道市 2019/7/26 fri

聖徳太子の時代から良港として使用された尾道港が公の港として指定されたのが、1169年。今年で開港850年を記念してイベントがいろいろ開催されていますが、そこに航空自衛隊が華を添えます。今季のスケジュールが発表されてから、注目のフライトです。

20190726_onomichi_00jr

小松航空祭でもないのに丑三つ時から出撃。朝にはすでに新大阪。蛇頭に乗って西へ。

20190726_onomichi_01onomichi

尾道 大林映画で想いで深い処

RJOA 260200Z 19004KT 100V260 9999 FEW020 SCT030 28/19 Q1010

20190726_onomichi_02onomichi

尾道水道を行き交う渡船を見ているだけで飽きません。

20190726_onomichi_03onomichi

富山市のガラス美術館そっくりな尾道西消防署

20190726_onomichi_04bi

美保気象隊の車両を発見。ここがショーセンター。前日の予行に備えます。

20190726_onomichi_05bi

11:45 広島空港を飛び立った2機が向島方面から進入

20190726_onomichi_06bi

スモーク!

20190726_onomichi_07bi

1.オリジナル・レベル・キューピット

20190726_onomichi_08bi

スモック 

20190726_onomichi_09bi

大きくて収まらなーい。

20190726_onomichi_10bi

南から東へ廻って

20190726_onomichi_11bi

2.デルタ・ダーティー・ローパス

20190726_onomichi_12bi

台風が心配されましたが、夏の青空にスモークが映えます。

20190726_onomichi_13bi

T-4の全機エンジン部品改修に伴い、なんとか2機だけが稼動できました。

20190726_onomichi_14bi

3.ラインアブレスト・ローパス

20190726_onomichi_15bi

ドクヘリの動向にハラハラしてます。

20190726_onomichi_16bi

編隊ブレイク 

20190726_onomichi_17bi

5番機のセブン・トゥエンティ・ターン

20190726_onomichi_18bi

20190726_onomichi_19bi

4.トレイル・ローパスはパス

20190726_onomichi_20bi

再度南から進入して

20190726_onomichi_21bi

5.スラント・キューピット

20190726_onomichi_22bi

20190726_onomichi_23bi

編隊集合して広島空港へ帰投となりました。 {1199}

RJOA 260300Z 22004KT 140V280 9999 FEW020 SCT030 30/20 Q1010

20190726_onomichi_24jr

次に転戦 黄色電車に乗って西へ向かいます。

20190726_onomichi_25jr

夏空が眩しい三原駅からバスで・・

|

« 第7師団創隊64周年・東千歳駐屯地創立65周年記念行事【観閲行進編】 2019/5/26 sun | トップページ | 尾道展示飛行展開 広島空港 2019/7/26 fri »

BI」カテゴリの記事

コメント

コメントを書く



(ウェブ上には掲載しません)


コメントは記事投稿者が公開するまで表示されません。



« 第7師団創隊64周年・東千歳駐屯地創立65周年記念行事【観閲行進編】 2019/5/26 sun | トップページ | 尾道展示飛行展開 広島空港 2019/7/26 fri »